Time;durP1;ratioP1;P1;durP2;ratioP2;P2;SDS_P1;SDS_P2;PMS_P1;PMS_P2;Temp;Humidity;BMP_temperature;BMP_pressure;BME280_temperature;BME280_humidity;BME280_pressure;Samples;Min_cycle;Max_cycle;Signal;HPM_P1;HPM_P2
2022/04/30 00:02:17;;;;;;;21.98;11.00;;;10.70;99.90;;;;;;4350136;28;9999837;-69
2022/04/30 00:04:44;;;;;;;18.38;10.85;;;10.70;99.90;;;;;;5049962;28;20028;-70
2022/04/30 00:07:16;;;;;;;16.17;10.77;;;10.60;99.90;;;;;;5054743;28;20090;-70
2022/04/30 00:09:42;;;;;;;16.27;10.32;;;10.60;99.90;;;;;;5060854;28;20111;-70
2022/04/30 00:12:09;;;;;;;15.35;10.23;;;10.50;99.90;;;;;;5054611;28;20381;-70
2022/04/30 00:14:36;;;;;;;16.55;10.32;;;10.50;99.90;;;;;;5055418;28;20029;-70
2022/04/30 00:17:02;;;;;;;16.05;10.43;;;10.40;99.90;;;;;;5059446;28;20099;-70
2022/04/30 00:19:28;;;;;;;19.00;10.30;;;10.40;99.90;;;;;;5055191;28;20037;-70
2022/04/30 00:21:54;;;;;;;18.27;11.20;;;10.40;99.90;;;;;;5055156;28;20475;-70
2022/04/30 00:24:20;;;;;;;16.98;10.82;;;10.40;99.90;;;;;;5056683;28;20048;-70
2022/04/30 00:27:10;;;;;;;18.75;10.52;;;10.40;99.90;;;;;;5053340;28;20024;-70
2022/04/30 00:29:35;;;;;;;15.40;10.15;;;10.40;99.90;;;;;;5058575;28;20040;-70
2022/04/30 00:32:03;;;;;;;14.13;10.23;;;10.30;99.90;;;;;;5053246;28;20024;-69
2022/04/30 00:34:29;;;;;;;19.10;9.98;;;10.30;99.90;;;;;;5054898;28;20380;-70
2022/04/30 00:36:56;;;;;;;13.85;10.40;;;10.30;99.90;;;;;;5060876;28;20488;-69
2022/04/30 00:39:21;;;;;;;13.45;10.45;;;10.40;99.90;;;;;;5046589;28;20224;-69
2022/04/30 00:41:48;;;;;;;14.23;9.07;;;10.40;99.90;;;;;;5053760;28;20039;-69
2022/04/30 00:44:20;;;;;;;19.58;10.32;;;10.40;99.90;;;;;;5058320;28;20028;-70
2022/04/30 00:46:46;;;;;;;19.00;10.80;;;10.30;99.90;;;;;;5052045;28;20552;-69
2022/04/30 00:49:12;;;;;;;16.05;9.90;;;10.30;99.90;;;;;;5051246;28;20101;-71
2022/04/30 00:51:43;;;;;;;18.67;10.45;;;10.30;99.90;;;;;;5047483;28;20051;-71
2022/04/30 00:54:11;;;;;;;14.93;10.32;;;10.30;99.90;;;;;;5049967;28;20559;-69
2022/04/30 00:56:46;;;;;;;17.25;10.73;;;10.30;99.90;;;;;;5051226;28;20116;-69
2022/04/30 00:59:17;;;;;;;15.40;10.55;;;10.20;99.90;;;;;;5059460;28;20534;-70
2022/04/30 01:01:43;;;;;;;13.55;10.50;;;10.20;99.90;;;;;;5048275;28;20087;-71
2022/04/30 01:04:09;;;;;;;16.00;10.55;;;10.10;99.90;;;;;;5051183;28;20032;-70
2022/04/30 01:06:57;;;;;;;15.57;10.43;;;10.10;99.90;;;;;;5051717;28;20423;-70
2022/04/30 01:09:32;;;;;;;12.63;10.10;;;10.10;99.90;;;;;;5066187;28;20036;-70
2022/04/30 01:12:01;;;;;;;18.65;10.10;;;10.00;99.90;;;;;;5052116;28;20020;-70
2022/04/30 01:14:31;;;;;;;15.88;9.85;;;9.90;99.90;;;;;;5054769;28;20040;-70
2022/04/30 01:16:59;;;;;;;14.82;9.63;;;9.90;99.90;;;;;;5066479;28;20025;-70
2022/04/30 01:19:29;;;;;;;13.93;10.35;;;9.80;99.90;;;;;;5057830;28;20029;-70
2022/04/30 01:22:00;;;;;;;16.00;10.60;;;9.80;99.90;;;;;;5042938;28;20025;-70
2022/04/30 01:24:28;;;;;;;19.50;10.98;;;9.80;99.90;;;;;;5057545;28;20045;-71
2022/04/30 01:26:55;;;;;;;15.85;9.90;;;9.80;99.90;;;;;;5055730;28;20070;-70
2022/04/30 01:29:24;;;;;;;13.90;9.50;;;9.80;99.90;;;;;;5051515;28;20046;-70
2022/04/30 01:37:25;;;;;;;13.65;9.15;;;9.80;99.90;;;;;;5049742;28;20515;-70
2022/04/30 01:39:58;;;;;;;14.70;9.73;;;9.70;99.90;;;;;;5047474;28;20036;-70
2022/04/30 01:42:25;;;;;;;14.68;9.80;;;9.70;99.90;;;;;;5055165;28;20109;-70
2022/04/30 01:44:53;;;;;;;12.02;8.77;;;9.70;99.90;;;;;;5052983;28;20079;-70
2022/04/30 01:47:19;;;;;;;15.52;9.38;;;9.70;99.90;;;;;;5053025;28;20155;-69
2022/04/30 01:49:45;;;;;;;16.83;10.02;;;9.70;99.90;;;;;;5050871;28;20104;-70
2022/04/30 01:52:13;;;;;;;16.13;9.98;;;9.70;99.90;;;;;;5049688;28;20116;-69
2022/04/30 01:54:39;;;;;;;16.65;10.02;;;9.70;99.90;;;;;;5056181;28;20044;-69
2022/04/30 01:57:05;;;;;;;12.70;9.70;;;9.70;99.90;;;;;;5049127;28;20358;-68
2022/04/30 01:59:31;;;;;;;17.60;10.38;;;9.70;99.90;;;;;;5045959;28;20097;-68
2022/04/30 02:01:59;;;;;;;15.18;9.88;;;9.70;99.90;;;;;;5052576;28;20245;-69
2022/04/30 02:04:25;;;;;;;16.13;10.43;;;9.60;99.90;;;;;;5060537;28;20041;-69
2022/04/30 02:06:51;;;;;;;15.07;9.95;;;9.50;99.90;;;;;;5055841;28;20032;-70
2022/04/30 02:09:18;;;;;;;14.57;10.70;;;9.50;99.90;;;;;;5055080;28;20496;-70
2022/04/30 02:11:45;;;;;;;12.20;9.63;;;9.40;99.90;;;;;;5054522;28;20468;-70
2022/04/30 02:14:15;;;;;;;13.00;10.23;;;9.40;99.90;;;;;;5056839;28;20021;-71
2022/04/30 02:16:42;;;;;;;17.02;10.52;;;9.40;99.90;;;;;;5053141;28;20112;-70
2022/04/30 02:19:08;;;;;;;16.75;11.20;;;9.30;99.90;;;;;;5052608;28;20033;-70
2022/04/30 02:21:35;;;;;;;17.80;10.90;;;9.20;99.90;;;;;;5049662;28;20027;-70
2022/04/30 02:24:02;;;;;;;14.55;11.05;;;9.20;99.90;;;;;;5050306;28;20505;-70
2022/04/30 02:26:28;;;;;;;15.57;10.52;;;9.10;99.90;;;;;;5052436;28;20039;-70
2022/04/30 02:28:56;;;;;;;16.50;11.27;;;9.10;99.90;;;;;;5047675;28;20033;-70
2022/04/30 02:31:25;;;;;;;15.13;10.18;;;9.10;99.90;;;;;;5045762;28;20537;-70
2022/04/30 02:33:55;;;;;;;15.10;11.18;;;9.10;99.90;;;;;;5042863;28;20283;-70
2022/04/30 02:36:29;;;;;;;14.30;11.05;;;9.10;99.90;;;;;;5052439;28;20151;-71
2022/04/30 02:38:56;;;;;;;16.65;11.13;;;9.10;99.90;;;;;;5056092;28;20028;-70
2022/04/30 02:41:22;;;;;;;17.35;11.57;;;9.00;99.90;;;;;;5051918;28;20064;-71
2022/04/30 02:43:50;;;;;;;14.43;10.88;;;9.00;99.90;;;;;;5056543;28;20024;-70
2022/04/30 02:46:16;;;;;;;14.50;11.30;;;9.10;99.90;;;;;;5054556;28;20028;-70
2022/04/30 02:48:42;;;;;;;16.23;10.68;;;9.00;99.90;;;;;;5047223;28;20117;-70
2022/04/30 02:51:10;;;;;;;15.48;11.07;;;9.00;99.90;;;;;;5049840;28;20092;-70
2022/04/30 02:53:36;;;;;;;16.63;11.25;;;9.00;99.90;;;;;;5049119;28;20029;-70
2022/04/30 02:56:02;;;;;;;16.10;11.18;;;9.00;99.90;;;;;;5047523;28;20412;-70
2022/04/30 03:01:12;;;;;;;15.82;11.15;;;8.90;99.90;;;;;;5047085;28;20064;-70
2022/04/30 03:03:38;;;;;;;13.90;10.55;;;8.90;99.90;;;;;;5058062;28;20048;-70
2022/04/30 03:06:03;;;;;;;15.43;10.95;;;9.00;99.90;;;;;;5052742;28;20031;-72
2022/04/30 03:08:29;;;;;;;13.98;11.02;;;9.00;99.90;;;;;;5049308;28;20028;-70
2022/04/30 03:10:56;;;;;;;17.88;12.15;;;9.00;99.90;;;;;;5061415;28;20048;-70
2022/04/30 03:13:24;;;;;;;16.52;11.45;;;9.00;99.90;;;;;;5051656;28;20099;-72
2022/04/30 03:15:51;;;;;;;16.05;10.88;;;9.00;99.90;;;;;;5049214;28;20338;-70
2022/04/30 03:23:51;;;;;;;17.48;12.10;;;8.90;99.90;;;;;;5041420;28;20357;-72
2022/04/30 03:26:20;;;;;;;17.88;12.27;;;8.80;99.90;;;;;;5051362;28;20036;-71
2022/04/30 03:28:47;;;;;;;21.25;12.57;;;8.80;99.90;;;;;;5055229;28;20528;-71
2022/04/30 03:31:15;;;;;;;18.65;13.52;;;8.70;99.90;;;;;;5047786;28;20028;-71
2022/04/30 03:33:42;;;;;;;20.42;13.50;;;8.60;99.90;;;;;;5050646;28;20025;-70
2022/04/30 03:36:12;;;;;;;19.45;13.23;;;8.60;99.90;;;;;;5056033;28;20545;-71
2022/04/30 03:38:38;;;;;;;18.13;13.25;;;8.50;99.90;;;;;;5047472;28;20095;-70
2022/04/30 03:41:05;;;;;;;20.50;12.93;;;8.50;99.90;;;;;;5048014;28;20111;-70
2022/04/30 03:43:31;;;;;;;20.77;14.43;;;8.40;99.90;;;;;;5047434;28;20036;-71
2022/04/30 03:45:57;;;;;;;21.30;13.43;;;8.40;99.90;;;;;;5049683;28;20029;-70
2022/04/30 03:48:23;;;;;;;21.10;14.30;;;8.40;99.90;;;;;;5063327;28;20020;-71
2022/04/30 03:50:48;;;;;;;20.77;13.75;;;8.40;99.90;;;;;;5042262;28;20064;-70
2022/04/30 03:53:14;;;;;;;23.58;14.00;;;8.30;99.90;;;;;;5050320;28;20041;-70
2022/04/30 03:55:39;;;;;;;19.00;13.80;;;8.30;99.90;;;;;;5053815;28;20027;-71
2022/04/30 03:58:05;;;;;;;19.70;13.60;;;8.30;99.90;;;;;;5054299;28;20082;-70
2022/04/30 04:00:31;;;;;;;20.23;14.77;;;8.30;99.90;;;;;;5047937;28;22348;-70
2022/04/30 04:02:59;;;;;;;19.88;13.55;;;8.30;99.90;;;;;;5052173;28;20029;-71
2022/04/30 04:05:26;;;;;;;19.88;14.00;;;8.20;99.90;;;;;;5045236;28;20102;-70
2022/04/30 04:07:52;;;;;;;22.25;13.75;;;8.20;99.90;;;;;;5054995;28;20028;-70
2022/04/30 04:10:17;;;;;;;21.88;13.10;;;8.30;99.90;;;;;;5050321;28;20036;-70
2022/04/30 04:12:43;;;;;;;20.00;13.25;;;8.30;99.90;;;;;;5052461;28;20424;-70
2022/04/30 04:17:54;;;;;;;18.95;13.30;;;8.20;99.90;;;;;;5059227;28;20408;-71
2022/04/30 04:20:24;;;;;;;18.35;13.23;;;8.20;99.90;;;;;;5050790;28;20082;-71
2022/04/30 04:22:50;;;;;;;17.95;13.00;;;8.20;99.90;;;;;;5054836;28;20244;-71
2022/04/30 04:28:00;;;;;;;17.83;12.27;;;8.20;99.90;;;;;;5053130;28;20062;-71
2022/04/30 04:30:28;;;;;;;17.27;12.48;;;8.30;99.90;;;;;;5046075;28;20028;-71
2022/04/30 04:32:55;;;;;;;21.63;13.25;;;8.30;99.90;;;;;;5057321;28;20472;-71
2022/04/30 04:35:21;;;;;;;19.45;12.68;;;8.30;99.90;;;;;;5061090;28;20028;-71
2022/04/30 04:37:47;;;;;;;18.63;13.02;;;8.30;99.90;;;;;;5053024;28;20021;-72
2022/04/30 04:40:15;;;;;;;18.67;12.98;;;8.30;99.90;;;;;;5043574;28;20036;-71
2022/04/30 04:42:42;;;;;;;20.30;12.63;;;8.20;99.90;;;;;;5053080;28;20115;-72
2022/04/30 04:45:08;;;;;;;20.83;12.90;;;8.30;99.90;;;;;;5056008;28;20108;-71
2022/04/30 04:47:36;;;;;;;21.23;13.18;;;8.20;99.90;;;;;;5048029;28;20119;-71
2022/04/30 04:50:03;;;;;;;23.25;12.95;;;8.20;99.90;;;;;;5051097;28;20033;-71
2022/04/30 04:52:29;;;;;;;22.73;13.30;;;8.10;99.90;;;;;;5045223;28;20021;-70
2022/04/30 04:54:54;;;;;;;19.58;13.32;;;8.10;99.90;;;;;;5049120;28;20043;-70
2022/04/30 04:57:20;;;;;;;20.23;13.55;;;8.00;99.90;;;;;;5057563;28;20118;-70
2022/04/30 04:59:46;;;;;;;18.75;12.77;;;8.00;99.90;;;;;;5046585;28;20029;-70
2022/04/30 05:02:11;;;;;;;19.50;13.32;;;8.00;99.90;;;;;;5050511;28;20029;-70
2022/04/30 05:04:37;;;;;;;18.27;13.20;;;8.00;99.90;;;;;;5051066;28;20035;-70
2022/04/30 05:07:03;;;;;;;21.80;13.32;;;7.90;99.90;;;;;;5050719;28;20021;-70
2022/04/30 05:09:31;;;;;;;20.17;13.38;;;8.00;99.90;;;;;;5046799;28;20370;-70
2022/04/30 05:12:01;;;;;;;18.77;13.48;;;7.90;99.90;;;;;;5052758;28;20442;-69
2022/04/30 05:14:32;;;;;;;20.33;12.85;;;7.90;99.90;;;;;;5048623;28;20035;-69
2022/04/30 05:16:58;;;;;;;17.65;12.70;;;7.90;99.90;;;;;;5054110;28;20523;-70
2022/04/30 05:19:24;;;;;;;22.63;13.38;;;7.90;99.90;;;;;;5047420;28;20029;-70
2022/04/30 05:21:50;;;;;;;19.90;12.38;;;7.90;99.90;;;;;;5044929;28;20043;-70
2022/04/30 05:24:15;;;;;;;19.42;12.10;;;7.90;99.90;;;;;;4353735;28;10000725;-69
2022/04/30 05:26:41;;;;;;;19.83;12.80;;;7.90;99.90;;;;;;5048817;28;20025;-69
2022/04/30 05:29:06;;;;;;;19.02;12.65;;;7.90;99.90;;;;;;5046629;28;20040;-69
2022/04/30 05:31:32;;;;;;;17.30;12.30;;;7.80;99.90;;;;;;5047783;28;20396;-69
2022/04/30 05:33:58;;;;;;;21.17;12.57;;;7.90;99.90;;;;;;5052317;28;20190;-69
2022/04/30 05:36:23;;;;;;;20.23;12.00;;;7.80;99.90;;;;;;5063010;28;20487;-69
2022/04/30 05:38:49;;;;;;;20.83;12.15;;;7.80;99.90;;;;;;5053433;28;20032;-70
2022/04/30 05:41:14;;;;;;;20.65;11.57;;;7.80;99.90;;;;;;5052996;28;20093;-69
2022/04/30 05:43:40;;;;;;;14.82;10.68;;;7.80;99.90;;;;;;5046189;28;20062;-69
2022/04/30 05:46:07;;;;;;;19.05;11.65;;;7.80;99.90;;;;;;5051607;28;20060;-69
2022/04/30 05:48:33;;;;;;;19.48;12.13;;;7.80;99.90;;;;;;5053012;28;20028;-69
2022/04/30 05:50:58;;;;;;;16.90;11.60;;;7.80;99.90;;;;;;5045631;28;20021;-69
2022/04/30 05:53:24;;;;;;;20.17;12.00;;;7.90;99.90;;;;;;5051612;28;20035;-71
2022/04/30 05:55:50;;;;;;;17.33;11.43;;;7.90;99.90;;;;;;5046215;28;20063;-69
2022/04/30 05:58:16;;;;;;;19.23;10.95;;;7.90;99.90;;;;;;5039857;28;20930;-69
2022/04/30 06:00:42;;;;;;;15.15;11.20;;;8.00;99.90;;;;;;5044976;28;20041;-69
2022/04/30 06:03:07;;;;;;;17.15;11.80;;;8.00;99.90;;;;;;5048084;28;20058;-69
2022/04/30 06:05:34;;;;;;;15.52;11.20;;;8.00;99.90;;;;;;5048496;28;20119;-69
2022/04/30 06:07:59;;;;;;;20.63;11.20;;;8.10;99.90;;;;;;5056713;28;20158;-69
2022/04/30 06:10:25;;;;;;;20.48;11.95;;;8.10;99.90;;;;;;5048787;28;20032;-69
2022/04/30 06:12:50;;;;;;;18.77;11.18;;;8.20;99.90;;;;;;5054520;28;20021;-69
2022/04/30 06:15:16;;;;;;;17.98;11.30;;;8.20;99.90;;;;;;5048301;28;20384;-69
2022/04/30 06:17:42;;;;;;;18.58;11.63;;;8.20;99.90;;;;;;5050605;28;20028;-69
2022/04/30 06:20:08;;;;;;;17.65;11.07;;;8.30;99.90;;;;;;5047176;28;20403;-70
2022/04/30 06:22:34;;;;;;;18.50;10.98;;;8.30;99.90;;;;;;5046704;28;20017;-68
2022/04/30 06:25:00;;;;;;;16.27;10.27;;;8.40;99.90;;;;;;5061818;28;20511;-68
2022/04/30 06:27:26;;;;;;;16.52;10.00;;;8.50;99.90;;;;;;5050436;28;20064;-68
2022/04/30 06:29:51;;;;;;;17.73;11.10;;;8.50;99.90;;;;;;5050148;28;20322;-68
2022/04/30 06:32:18;;;;;;;16.02;10.45;;;8.50;99.90;;;;;;5045147;28;20382;-69
2022/04/30 06:34:43;;;;;;;14.70;10.18;;;8.50;99.90;;;;;;5055222;28;20028;-68
2022/04/30 06:37:09;;;;;;;13.60;10.57;;;8.50;99.90;;;;;;5046267;28;20035;-69
2022/04/30 06:39:34;;;;;;;16.08;10.18;;;8.50;99.90;;;;;;5053443;28;20063;-69
2022/04/30 06:42:00;;;;;;;16.30;10.45;;;8.60;99.90;;;;;;5049441;28;20032;-68
2022/04/30 06:44:25;;;;;;;16.75;10.00;;;8.60;99.90;;;;;;5059526;28;20039;-68
2022/04/30 06:46:51;;;;;;;15.35;9.80;;;8.60;99.90;;;;;;5058348;28;20032;-68
2022/04/30 06:49:16;;;;;;;15.85;10.43;;;8.60;99.90;;;;;;5039381;28;20033;-70
2022/04/30 06:51:42;;;;;;;15.27;10.13;;;8.60;99.90;;;;;;5047950;28;20451;-69
2022/04/30 06:57:17;;;;;;;15.98;10.77;;;8.70;99.90;;;;;;5054202;28;20146;-69
2022/04/30 06:59:44;;;;;;;16.42;9.88;;;8.70;99.90;;;;;;5051643;28;20032;-69
2022/04/30 07:02:19;;;;;;;15.73;10.05;;;8.70;99.90;;;;;;5048561;28;20051;-69
2022/04/30 07:04:49;;;;;;;14.90;9.52;;;8.80;99.90;;;;;;5050174;28;20447;-69
2022/04/30 07:07:15;;;;;;;14.60;9.48;;;8.70;99.90;;;;;;5052029;28;20044;-69
2022/04/30 07:09:41;;;;;;;20.65;9.45;;;8.80;99.90;;;;;;5062304;28;20024;-69
2022/04/30 07:12:09;;;;;;;16.13;9.68;;;8.80;99.90;;;;;;5049047;28;20038;-68
2022/04/30 07:14:37;;;;;;;14.65;9.63;;;8.80;99.90;;;;;;5053699;28;20021;-69
2022/04/30 07:17:07;;;;;;;19.63;9.70;;;8.70;99.90;;;;;;5056620;28;20399;-69
2022/04/30 07:19:34;;;;;;;13.90;9.88;;;8.80;99.90;;;;;;5051524;28;20025;-69
2022/04/30 07:22:00;;;;;;;14.50;9.52;;;8.80;99.90;;;;;;5048938;28;20074;-68
2022/04/30 07:24:27;;;;;;;15.93;9.75;;;8.80;99.90;;;;;;5052236;28;20102;-69
2022/04/30 07:26:52;;;;;;;15.35;9.35;;;8.90;99.90;;;;;;5045242;28;20028;-69
2022/04/30 07:29:18;;;;;;;16.75;10.30;;;9.00;99.90;;;;;;5056786;28;20052;-69
2022/04/30 07:31:44;;;;;;;13.85;10.20;;;9.00;99.90;;;;;;5046576;28;20468;-70
2022/04/30 07:34:10;;;;;;;16.15;10.70;;;9.10;99.90;;;;;;5047413;28;20029;-68
2022/04/30 07:36:37;;;;;;;13.25;9.43;;;9.20;99.90;;;;;;5044728;28;20143;-68
2022/04/30 07:39:04;;;;;;;14.02;9.35;;;9.20;99.90;;;;;;5053405;28;20583;-69
2022/04/30 07:41:30;;;;;;;19.23;10.43;;;9.40;99.90;;;;;;5047661;28;20037;-69
2022/04/30 07:43:56;;;;;;;16.00;9.55;;;9.40;99.90;;;;;;5051110;28;20103;-71
2022/04/30 07:46:25;;;;;;;14.70;10.27;;;9.50;99.90;;;;;;5052186;28;20036;-71
2022/04/30 07:48:51;;;;;;;13.68;9.60;;;9.60;99.90;;;;;;5048471;28;20043;-71
2022/04/30 07:51:23;;;;;;;16.30;10.40;;;9.70;99.90;;;;;;5046203;28;20036;-70
2022/04/30 07:53:49;;;;;;;16.48;9.57;;;9.70;99.90;;;;;;5051079;28;20031;-71
2022/04/30 07:56:15;;;;;;;14.43;9.25;;;9.70;99.90;;;;;;5055829;28;20388;-71
2022/04/30 07:58:41;;;;;;;11.02;9.13;;;9.70;99.90;;;;;;5063840;28;20020;-71
2022/04/30 08:01:07;;;;;;;12.52;9.52;;;9.70;99.90;;;;;;5051056;28;20450;-70
2022/04/30 08:03:33;;;;;;;13.15;9.27;;;9.80;99.90;;;;;;5056273;28;20153;-71
2022/04/30 08:05:59;;;;;;;12.38;9.20;;;9.80;99.90;;;;;;5052595;28;20032;-73
2022/04/30 08:08:24;;;;;;;15.63;8.88;;;9.90;99.90;;;;;;5060881;28;20043;-74
2022/04/30 08:10:50;;;;;;;11.20;9.30;;;9.90;99.90;;;;;;5057305;28;20086;-71
2022/04/30 08:13:15;;;;;;;12.10;8.85;;;10.00;99.90;;;;;;5052311;28;20116;-70
2022/04/30 08:15:44;;;;;;;13.07;8.80;;;9.90;99.90;;;;;;5059781;28;20027;-70
2022/04/30 08:18:10;;;;;;;12.77;9.32;;;9.90;99.90;;;;;;5056919;28;20044;-72
2022/04/30 08:20:37;;;;;;;13.88;9.07;;;9.90;99.90;;;;;;5049434;28;20032;-70
2022/04/30 08:23:04;;;;;;;11.50;8.68;;;9.90;99.90;;;;;;5051436;28;20029;-71
2022/04/30 08:25:30;;;;;;;12.25;9.27;;;9.90;99.90;;;;;;5056635;28;20041;-72
2022/04/30 08:27:55;;;;;;;12.13;9.50;;;9.90;99.90;;;;;;5055603;28;20090;-72
2022/04/30 08:30:21;;;;;;;13.63;9.05;;;9.80;99.90;;;;;;5050346;28;20086;-72
2022/04/30 08:32:49;;;;;;;15.98;9.18;;;9.90;99.90;;;;;;5051777;28;20043;-71
2022/04/30 08:35:15;;;;;;;13.75;8.57;;;9.90;99.90;;;;;;5057794;28;20039;-70
2022/04/30 08:37:41;;;;;;;13.45;8.50;;;9.90;99.90;;;;;;5052718;28;20024;-71
2022/04/30 08:40:07;;;;;;;12.68;9.10;;;9.90;99.90;;;;;;5046002;28;20381;-69
2022/04/30 08:42:33;;;;;;;14.20;8.68;;;9.90;99.90;;;;;;5058765;28;20068;-69
2022/04/30 08:45:03;;;;;;;17.40;9.27;;;9.90;99.90;;;;;;4360774;28;10000720;-70
2022/04/30 08:47:37;;;;;;;13.82;8.18;;;9.90;99.90;;;;;;5044807;28;20079;-70
2022/04/30 08:50:03;;;;;;;15.77;8.75;;;9.90;99.90;;;;;;5046852;28;20054;-70
2022/04/30 08:52:29;;;;;;;11.20;7.72;;;10.00;99.90;;;;;;5056747;28;20020;-70
2022/04/30 08:54:54;;;;;;;16.17;8.70;;;10.00;99.90;;;;;;5059280;28;20381;-70
2022/04/30 08:57:20;;;;;;;14.32;8.73;;;10.00;99.90;;;;;;5060000;28;20032;-70
2022/04/30 08:59:46;;;;;;;13.75;8.85;;;10.00;99.90;;;;;;5058970;28;20119;-70
2022/04/30 09:02:12;;;;;;;10.68;7.47;;;10.00;99.90;;;;;;5056131;28;20021;-69
2022/04/30 09:04:43;;;;;;;13.18;8.32;;;10.00;99.90;;;;;;5056731;28;20013;-70
2022/04/30 09:07:22;;;;;;;10.32;7.88;;;9.90;99.90;;;;;;5057006;28;20067;-69
2022/04/30 09:09:58;;;;;;;11.23;7.35;;;10.00;99.90;;;;;;5054507;28;20066;-71
2022/04/30 09:12:25;;;;;;;11.60;7.43;;;10.00;99.90;;;;;;5057422;28;20498;-68
2022/04/30 09:14:50;;;;;;;11.95;7.55;;;10.00;99.90;;;;;;5057800;28;20209;-70
2022/04/30 09:17:17;;;;;;;10.38;7.63;;;10.00;99.90;;;;;;5058537;28;20553;-68
2022/04/30 09:20:01;;;;;;;10.80;7.35;;;10.00;99.90;;;;;;5056686;28;20107;-68
2022/04/30 09:22:30;;;;;;;10.85;7.57;;;10.00;99.90;;;;;;5055204;28;20110;-68
2022/04/30 09:24:57;;;;;;;11.27;7.45;;;10.00;99.90;;;;;;5047862;28;20436;-68
2022/04/30 09:27:23;;;;;;;16.15;7.90;;;9.90;99.90;;;;;;5055610;28;20025;-69
2022/04/30 09:29:49;;;;;;;13.45;7.70;;;10.00;99.90;;;;;;5055998;28;20024;-69
2022/04/30 09:32:19;;;;;;;11.38;7.18;;;10.00;99.90;;;;;;5055297;28;20090;-68
2022/04/30 09:37:43;;;;;;;10.52;6.95;;;9.90;99.90;;;;;;5054599;28;20315;-71
2022/04/30 09:40:12;;;;;;;11.25;6.93;;;10.00;99.90;;;;;;5050803;28;20035;-70
2022/04/30 09:42:41;;;;;;;8.57;6.30;;;10.00;99.90;;;;;;5058330;28;20260;-70
2022/04/30 09:45:07;;;;;;;12.52;6.97;;;10.00;99.90;;;;;;5058854;28;20350;-70
2022/04/30 09:47:34;;;;;;;10.70;6.70;;;10.10;99.90;;;;;;5056304;28;20117;-70
2022/04/30 09:55:34;;;;;;;11.73;6.55;;;10.30;99.90;;;;;;5055652;28;20040;-70
2022/04/30 09:58:04;;;;;;;12.18;7.20;;;10.40;99.90;;;;;;5048904;28;20028;-70
2022/04/30 10:00:34;;;;;;;12.75;7.53;;;10.50;99.90;;;;;;5053448;28;20112;-70
2022/04/30 10:03:02;;;;;;;10.18;6.72;;;10.60;99.90;;;;;;5056332;28;20031;-70
2022/04/30 10:05:30;;;;;;;11.73;7.10;;;10.60;99.90;;;;;;5058202;28;20064;-70
2022/04/30 10:07:56;;;;;;;12.45;6.90;;;10.70;99.90;;;;;;5055730;28;20450;-70
2022/04/30 10:10:31;;;;;;;11.25;7.10;;;10.70;99.90;;;;;;5054851;28;20043;-69
2022/04/30 10:13:15;;;;;;;11.32;7.40;;;10.70;99.90;;;;;;5055009;28;20051;-71
2022/04/30 10:15:51;;;;;;;12.15;7.47;;;10.70;99.90;;;;;;5057726;28;20035;-71
2022/04/30 10:18:18;;;;;;;11.18;6.97;;;11.00;99.90;;;;;;5054188;28;20025;-71
2022/04/30 10:20:51;;;;;;;12.82;7.30;;;10.90;99.90;;;;;;5055077;28;20380;-70
2022/04/30 10:23:17;;;;;;;14.95;7.53;;;11.00;99.90;;;;;;5057753;28;20047;-71
2022/04/30 10:25:48;;;;;;;10.77;6.95;;;11.00;99.90;;;;;;5051617;28;20130;-72
2022/04/30 10:28:21;;;;;;;11.82;7.50;;;11.00;99.90;;;;;;5058253;28;20675;-72
2022/04/30 10:31:00;;;;;;;;;;;11.10;99.90;;;;;;5057363;28;20043;-72
2022/04/30 10:33:26;;;;;;;12.45;7.55;;;11.10;99.90;;;;;;5057407;28;19951;-72
2022/04/30 10:36:04;;;;;;;10.65;7.30;;;11.20;99.90;;;;;;5057609;28;20032;-71
2022/04/30 10:38:29;;;;;;;9.55;7.05;;;11.20;99.90;;;;;;5057988;28;20792;-72
2022/04/30 10:41:00;;;;;;;10.23;7.00;;;11.20;99.90;;;;;;5053307;28;20033;-71
2022/04/30 10:43:46;;;;;;;11.90;7.55;;;11.30;99.90;;;;;;5053261;28;20056;-71
2022/04/30 10:46:18;;;;;;;14.05;7.88;;;11.30;99.90;;;;;;5054645;28;20553;-71
2022/04/30 10:48:44;;;;;;;12.98;7.68;;;11.30;99.90;;;;;;5056794;28;20028;-71
2022/04/30 10:51:14;;;;;;;12.30;7.53;;;11.30;99.90;;;;;;5057216;28;20374;-71
2022/04/30 10:53:42;;;;;;;12.57;8.15;;;11.30;99.90;;;;;;5055788;28;20021;-71
2022/04/30 10:56:08;;;;;;;16.42;7.07;;;11.30;99.90;;;;;;5054922;28;20083;-73
2022/04/30 10:58:38;;;;;;;12.95;7.47;;;11.30;99.90;;;;;;5056507;28;20028;-71
2022/04/30 11:01:18;;;;;;;12.05;7.47;;;11.30;99.90;;;;;;5041862;28;20464;-69
2022/04/30 11:03:48;;;;;;;10.80;7.75;;;11.30;99.90;;;;;;5047896;28;20162;-69
2022/04/30 11:06:25;;;;;;;11.27;8.07;;;11.20;99.90;;;;;;4695002;28;9999984;-68
2022/04/30 11:09:07;;;;;;;13.02;8.10;;;11.20;99.90;;;;;;5047869;28;21035;-69
2022/04/30 11:11:34;;;;;;;12.45;8.18;;;11.20;99.90;;;;;;5044772;28;20042;-69
2022/04/30 11:14:10;;;;;;;14.10;8.10;;;11.20;99.90;;;;;;5055360;28;20031;-67
2022/04/30 11:16:44;;;;;;;15.90;8.00;;;11.20;99.90;;;;;;4859297;28;10001147;-68
2022/04/30 11:19:14;;;;;;;15.10;8.05;;;11.10;99.90;;;;;;5042833;28;20041;-69
2022/04/30 11:21:42;;;;;;;13.13;8.30;;;11.10;99.90;;;;;;4696696;28;9999935;-68
2022/04/30 11:24:09;;;;;;;11.45;7.97;;;11.00;99.90;;;;;;5049704;28;20052;-67
2022/04/30 11:26:43;;;;;;;12.80;8.30;;;10.90;99.90;;;;;;5054176;28;20128;-67
2022/04/30 11:29:13;;;;;;;11.23;8.75;;;10.80;99.90;;;;;;5053431;28;20044;-68
2022/04/30 11:31:42;;;;;;;14.30;9.00;;;10.80;99.90;;;;;;5055807;28;20456;-67
2022/04/30 11:34:11;;;;;;;14.73;9.60;;;10.70;99.90;;;;;;5051174;28;20688;-67
2022/04/30 11:36:44;;;;;;;13.65;8.75;;;10.70;99.90;;;;;;4708451;28;10000551;-69
2022/04/30 11:39:11;;;;;;;15.13;8.93;;;10.70;99.90;;;;;;4705033;28;10001334;-67
2022/04/30 11:41:57;;;;;;;15.85;8.68;;;10.70;99.90;;;;;;5056455;28;20518;-67
2022/04/30 11:44:25;;;;;;;16.45;9.57;;;10.60;99.90;;;;;;5053548;28;20111;-68
2022/04/30 11:46:52;;;;;;;15.45;8.90;;;10.60;99.90;;;;;;5056424;28;20036;-68
2022/04/30 11:49:19;;;;;;;15.40;9.40;;;10.70;99.90;;;;;;5051495;28;20379;-68
2022/04/30 11:51:48;;;;;;;13.15;8.20;;;10.80;99.90;;;;;;5060189;28;20021;-68
2022/04/30 11:54:22;;;;;;;13.40;9.23;;;10.80;99.90;;;;;;5035380;28;20435;-69
2022/04/30 11:56:49;;;;;;;16.02;9.20;;;10.90;99.90;;;;;;5059987;28;20144;-68
2022/04/30 11:59:14;;;;;;;13.45;9.43;;;10.90;99.90;;;;;;5054301;28;20028;-68
2022/04/30 12:01:42;;;;;;;13.07;9.05;;;11.20;99.90;;;;;;4709758;28;10000661;-67
2022/04/30 12:04:11;;;;;;;16.63;9.85;;;11.30;99.90;;;;;;5052193;28;20032;-68
2022/04/30 12:06:38;;;;;;;16.80;9.35;;;11.30;99.90;;;;;;4705487;28;9999907;-68
2022/04/30 12:09:17;;;;;;;12.95;9.40;;;11.40;99.90;;;;;;5052319;28;20391;-69
2022/04/30 12:11:53;;;;;;;12.48;9.70;;;11.50;99.90;;;;;;5045748;28;20021;-68
2022/04/30 12:14:19;;;;;;;16.30;9.88;;;11.50;99.90;;;;;;5051634;28;20115;-68
2022/04/30 12:16:47;;;;;;;13.15;9.13;;;11.50;99.90;;;;;;4699277;28;10000205;-68
2022/04/30 12:24:58;;;;;;;14.93;9.50;;;11.40;99.90;;;;;;5045661;28;20075;-69
2022/04/30 12:27:24;;;;;;;16.67;10.40;;;11.40;99.90;;;;;;4355803;28;9999916;-68
2022/04/30 12:30:01;;;;;;;12.32;9.57;;;11.40;99.90;;;;;;4698015;28;10000500;-69
2022/04/30 12:32:26;;;;;;;14.20;9.68;;;11.30;99.90;;;;;;5049224;28;20232;-69
2022/04/30 12:34:53;;;;;;;19.63;10.32;;;11.10;99.90;;;;;;5050764;28;20039;-68
2022/04/30 12:37:32;;;;;;;14.38;10.07;;;11.10;99.90;;;;;;4698971;28;9999953;-69
2022/04/30 12:39:58;;;;;;;14.43;9.98;;;11.00;99.90;;;;;;5054169;28;20032;-69
2022/04/30 12:42:24;;;;;;;14.45;10.10;;;11.00;99.90;;;;;;5045495;28;20028;-68
2022/04/30 12:50:00;;;;;;;14.05;9.77;;;10.80;99.90;;;;;;4690393;22;10000194;-74
2022/04/30 12:52:26;;;;;;;16.30;9.45;;;10.90;99.90;;;;;;4953811;28;20137;-72
2022/04/30 12:54:51;;;;;;;14.75;9.35;;;10.90;99.90;;;;;;4948286;28;20051;-72
2022/04/30 12:57:17;;;;;;;18.20;9.90;;;10.90;99.90;;;;;;4960526;28;20054;-72
2022/04/30 12:59:44;;;;;;;16.17;9.65;;;10.90;99.90;;;;;;4964443;28;20399;-72
2022/04/30 13:02:09;;;;;;;15.45;9.43;;;10.90;99.90;;;;;;4960900;28;20061;-71
2022/04/30 13:04:36;;;;;;;14.60;9.65;;;10.90;99.90;;;;;;4959237;28;20027;-72
2022/04/30 13:07:02;;;;;;;12.93;9.25;;;10.80;99.90;;;;;;4955783;28;20031;-72
2022/04/30 13:14:55;;;;;;;17.67;10.00;;;10.90;99.90;;;;;;4962522;28;20093;-72
2022/04/30 13:17:22;;;;;;;16.77;10.13;;;10.90;99.90;;;;;;4974685;28;20022;-74
2022/04/30 13:19:49;;;;;;;14.35;9.80;;;10.90;99.90;;;;;;4954749;28;20043;-74
2022/04/30 13:22:15;;;;;;;12.20;9.30;;;11.00;99.90;;;;;;4965344;28;20509;-74
2022/04/30 13:24:40;;;;;;;20.85;10.07;;;11.10;99.90;;;;;;4955892;28;20139;-74
2022/04/30 13:27:06;;;;;;;16.73;9.85;;;11.20;99.90;;;;;;4965353;28;20047;-74